Alexandra — V7ZT8 — position and weather

sailwx.info

Track history (hours):
 
Tides and Currents Weather Stations Pressure Air Temp Water Temp Dewpoint Dewpoint Depression Visibility Wind Speed Wind Dir Waves Ship Positions

Alexandra

Last reported at 2018-Jun-19 00:59 UTC. Time now 2018-Jun-19 01:24 UTC.
Position N 35°24' E 139°41'.

Length 270 m; draft 11.5 m.

Type: Ship (hazmat cat A). MMSI: 538004912.

Date/timePositionNaut miles runAvg speedWind from/ knotsBaromVisibWave heightAir tempDewpointWater temp
2018-Jun-19 00:59N 35°24' E 139°41'0 0.0
2018-Jun-19 00:29N 35°24' E 139°41'0 0.0
2018-Jun-18 23:59N 35°24' E 139°41'0 0.0
2018-Jun-18 23:29N 35°24' E 139°41'0 0.0
2018-Jun-18 23:00N 35°24' E 139°41'1 2.1
2018-Jun-18 22:30N 35°23' E 139°41'3 5.2
2018-Jun-18 22:00N 35°21' E 139°43'610.9
2018-Jun-18 21:30N 35°16' E 139°46'611.6
2018-Jun-18 21:01N 35°10' E 139°47'4 8.2
2018-Jun-18 20:30N 35°06' E 139°46'611.0
2018-Jun-18 19:56N 35°01' E 139°42'511.2
2018-Jun-18 19:28N 34°56' E 139°40'2610.6
2018-Jun-18 17:01N 34°53' E 140°12'015.2
2018-Jun-18 17:00N 34°53' E 140°12'  
Track history (hours):
 
Tides and Currents Weather Stations Pressure Air Temp Water Temp Dewpoint Dewpoint Depression Visibility Wind Speed Wind Dir Waves Ship Positions

Alexandra

Last reported at 2018-Jun-19 00:59 UTC. Time now 2018-Jun-19 01:24 UTC.
Position N 35°24' E 139°41'.

Length 270 m; draft 11.5 m.

Type: Ship (hazmat cat A). MMSI: 538004912.

Date/timePositionNaut miles runAvg speedWind from/ knotsBaromVisibWave heightAir tempDewpointWater temp
2018-Jun-19 00:59N 35°24' E 139°41'0 0.0
2018-Jun-19 00:29N 35°24' E 139°41'0 0.0
2018-Jun-18 23:59N 35°24' E 139°41'0 0.0
2018-Jun-18 23:29N 35°24' E 139°41'0 0.0
2018-Jun-18 23:00N 35°24' E 139°41'1 2.1
2018-Jun-18 22:30N 35°23' E 139°41'3 5.2
2018-Jun-18 22:00N 35°21' E 139°43'610.9
2018-Jun-18 21:30N 35°16' E 139°46'611.6
2018-Jun-18 21:01N 35°10' E 139°47'4 8.2
2018-Jun-18 20:30N 35°06' E 139°46'611.0
2018-Jun-18 19:56N 35°01' E 139°42'511.2
2018-Jun-18 19:28N 34°56' E 139°40'2610.6
2018-Jun-18 17:01N 34°53' E 140°12'015.2
2018-Jun-18 17:00N 34°53' E 140°12'  

Dump ship's entire track history